MSC Luisa — H9XU — position and weather

sailwx.info

Track history (hours):
 
Tides and Currents Weather Stations Pressure Air Temp Water Temp Dewpoint Dewpoint Depression Visibility Wind Speed Wind Dir Waves Ship Positions

MSC Luisa

Last reported at 2017-Nov-18 03:32 UTC. Time now 2017-Nov-18 04:37 UTC.
Position N 48°28' W 006°09'.

Length 300 m; draft 10.8 m.

Type: Ship. MMSI: 355308000.

Date/timePositionNaut miles runAvg speedWind from/ knotsBaromVisibWave heightAir tempDewpointWater temp
2017-Nov-18 03:32N 48°28' W 006°09'918.9
2017-Nov-18 03:02N 48°36' W 006°03'119.0
2017-Nov-18 02:59N 48°37' W 006°02'1118.8
2017-Nov-18 02:24N 48°46' W 005°54'918.4
2017-Nov-18 01:55N 48°54' W 005°47'919.0
2017-Nov-18 01:26N 48°59' W 005°35'2619.6
2017-Nov-18 00:06N 49°12' W 005°01'320.4
2017-Nov-17 23:57N 49°14' W 004°57'1120.8
2017-Nov-17 23:24N 49°19' W 004°42'2921.4
2017-Nov-17 22:02N 49°33' W 004°02'621.3
2017-Nov-17 21:45N 49°36' W 003°53'521.1
2017-Nov-17 21:29N 49°38' W 003°46'1520.4
2017-Nov-17 20:44N 49°47' W 003°26'520.0
2017-Nov-17 20:30N 49°49' W 003°20'1019.4
2017-Nov-17 20:00N 49°54' W 003°07'918.8
2017-Nov-17 19:30N 49°57' W 002°53'918.2
2017-Nov-17 19:00N 49°60' W 002°40'2417.2
2017-Nov-17 17:35N 49°59' W 002°02'118.2
2017-Nov-17 17:31N 49°58' W 001°60'918.4
2017-Nov-17 17:00N 49°56' W 001°46'918.2
2017-Nov-17 16:31N 49°53' W 001°32'918.9
2017-Nov-17 16:01N 49°51' W 001°18'1020.1
2017-Nov-17 15:30N 49°47' W 001°04'1020.5
2017-Nov-17 15:00N 49°42' W 000°50'1020.8
2017-Nov-17 14:30N 49°38' W 000°35'1020.8
2017-Nov-17 14:00N 49°34' W 000°20'919.0
2017-Nov-17 13:30N 49°31' W 000°06'714.1
2017-Nov-17 13:00N 49°29' E 000°04'3 6.0
2017-Nov-17 12:30N 49°28' E 000°08'0 0.0
2017-Nov-17 12:00N 49°28' E 000°08'0 0.0
2017-Nov-17 11:30N 49°28' E 000°08'0 0.0
2017-Nov-17 10:58N 49°28' E 000°08'0 0.0
2017-Nov-17 10:28N 49°28' E 000°08'0 0.0
2017-Nov-17 09:58N 49°28' E 000°08'0 0.0
2017-Nov-17 09:28N 49°28' E 000°08'0 0.0
2017-Nov-17 09:00N 49°28' E 000°08'0 0.0
2017-Nov-17 08:30N 49°28' E 000°08'0 0.0
2017-Nov-17 07:58N 49°28' E 000°08'0 0.0
2017-Nov-17 07:28N 49°28' E 000°08'0 0.0
2017-Nov-17 06:58N 49°28' E 000°08'0 0.0
2017-Nov-17 06:28N 49°28' E 000°08'0 0.0
2017-Nov-17 05:58N 49°28' E 000°08'0 0.0
2017-Nov-17 05:28N 49°28' E 000°08'0 0.0
2017-Nov-17 04:58N 49°28' E 000°08'0 0.0
2017-Nov-17 04:28N 49°28' E 000°08'0 0.0
2017-Nov-17 03:58N 49°28' E 000°08'0 0.0
2017-Nov-17 03:30N 49°28' E 000°08'0 0.0
2017-Nov-17 02:59N 49°28' E 000°08'0 0.0
2017-Nov-17 02:30N 49°28' E 000°08'0 0.0
2017-Nov-17 01:57N 49°28' E 000°08'0 0.0
2017-Nov-17 01:30N 49°28' E 000°08'0 0.0
2017-Nov-17 00:59N 49°28' E 000°08'0 0.0
2017-Nov-17 00:29N 49°28' E 000°08'0 0.0
2017-Nov-17 00:00N 49°28' E 000°08'0 0.0
2017-Nov-16 23:30N 49°28' E 000°08'0 0.0
2017-Nov-16 22:59N 49°28' E 000°08'0 0.0
2017-Nov-16 22:29N 49°28' E 000°08'0 0.0
2017-Nov-16 21:58N 49°28' E 000°08'0 0.0
2017-Nov-16 21:30N 49°28' E 000°08'0 0.0
2017-Nov-16 21:00N 49°28' E 000°08'0 0.0
2017-Nov-16 20:30N 49°28' E 000°08'0 0.2
2017-Nov-16 20:01N 49°28' E 000°08'4 7.4
2017-Nov-16 19:30N 49°30' E 000°03'714.9
2017-Nov-16 19:00N 49°32' W 000°08'3 5.2
2017-Nov-16 18:30N 49°33' W 000°11'4 8.8
2017-Nov-16 18:00N 49°38' W 000°12'816.1
2017-Nov-16 17:30N 49°45' W 000°08'1020.5
2017-Nov-16 17:00N 49°56' W 000°08'1020.4
2017-Nov-16 16:30N 50°06' W 000°07'1020.1
2017-Nov-16 16:00N 50°16' W 000°06'1019.6
2017-Nov-16 15:30N 50°26' W 000°03'1020.4
2017-Nov-16 15:00N 50°30' E 000°12'1020.7
2017-Nov-16 14:30N 50°34' E 000°26'1020.4
2017-Nov-16 14:00N 50°40' E 000°40'1020.0
2017-Nov-16 13:30N 50°46' E 000°52'1019.3
2017-Nov-16 13:00N 50°52' E 001°05'918.5
2017-Nov-16 12:30N 50°58' E 001°16'817.0
2017-Nov-16 12:00N 51°03' E 001°26'815.2
2017-Nov-16 11:30N 51°09' E 001°35'714.1
2017-Nov-16 11:00N 51°15' E 001°39'816.5
2017-Nov-16 10:30N 51°23' E 001°34'713.2
2017-Nov-16 10:00N 51°28' E 001°28'713.3
2017-Nov-16 09:30N 51°29' E 001°17'612.7
2017-Nov-16 09:00N 51°29' E 001°07'713.5
2017-Nov-16 08:30N 51°29' E 000°56'815.5
2017-Nov-16 08:00N 51°30' E 000°44'713.9
2017-Nov-16 07:31N 51°30' E 000°33'2 3.2
2017-Nov-16 07:01N 51°30' E 000°30'0 0.0
2017-Nov-16 06:31N 51°30' E 000°30'0 0.0
2017-Nov-16 06:00N 51°30' E 000°30'0 0.0
2017-Nov-16 05:30N 51°30' E 000°30'0 0.0
2017-Nov-16 05:01N 51°30' E 000°30'0 0.0
2017-Nov-16 04:31N 51°30' E 000°30'0 0.0
2017-Nov-16 04:01N 51°30' E 000°30'0 0.0
2017-Nov-16 03:30N 51°30' E 000°30'0 0.0
2017-Nov-16 03:00N 51°30' E 000°30'0 0.0
2017-Nov-16 02:31N 51°30' E 000°30'0 0.0
2017-Nov-16 02:01N 51°30' E 000°30'0 0.0
2017-Nov-16 01:31N 51°30' E 000°30'0 0.0
2017-Nov-16 01:00N 51°30' E 000°30'0 0.0
2017-Nov-16 00:31N 51°30' E 000°30'0 0.0
2017-Nov-16 00:01N 51°30' E 000°30'0 0.0
2017-Nov-15 23:31N 51°30' E 000°30'0 0.0
2017-Nov-15 23:01N 51°30' E 000°30'0 0.1
2017-Nov-15 22:31N 51°30' E 000°30'0 0.0
2017-Nov-15 22:01N 51°30' E 000°30'0 0.0
2017-Nov-15 21:31N 51°30' E 000°30'0 0.0
2017-Nov-15 21:01N 51°30' E 000°30'0 0.0
2017-Nov-15 20:31N 51°30' E 000°30'0 0.0
2017-Nov-15 20:01N 51°30' E 000°30'0 0.0
2017-Nov-15 19:30N 51°30' E 000°30'0 0.0
2017-Nov-15 19:01N 51°30' E 000°30'0 0.0
2017-Nov-15 18:31N 51°30' E 000°30'0 0.0
2017-Nov-15 18:01N 51°30' E 000°30'0 0.0
2017-Nov-15 17:30N 51°30' E 000°30'0 0.0
2017-Nov-15 17:00N 51°30' E 000°30'0 0.2
2017-Nov-15 16:30N 51°30' E 000°30'3 5.4
2017-Nov-15 16:01N 51°30' E 000°34'714.7
2017-Nov-15 15:30N 51°29' E 000°46'815.5
2017-Nov-15 15:00N 51°29' E 000°59'1015.8
2017-Nov-15 14:22N 51°34' E 001°13'615.8
2017-Nov-15 14:00N 51°38' E 001°20'815.8
2017-Nov-15 13:30N 51°44' E 001°29'815.4
2017-Nov-15 13:00N 51°49' E 001°37'611.2
2017-Nov-15 12:30N 51°53' E 001°44'4 7.2
2017-Nov-15 12:00N 51°54' E 001°49'1 1.9
2017-Nov-15 11:30N 51°54' E 001°48'1 1.5
2017-Nov-15 11:00N 51°53' E 001°47'1 1.2
2017-Nov-15 10:30N 51°53' E 001°47'0 0.9
2017-Nov-15 10:00N 51°53' E 001°46'0 0.5
2017-Nov-15 09:30N 51°53' E 001°46'0 0.2
2017-Nov-15 09:00N 51°53' E 001°45'0 0.3
2017-Nov-15 08:30N 51°52' E 001°45'3 5.2
2017-Nov-15 08:00N 51°50' E 001°47'3 6.9
2017-Nov-15 07:30N 51°47' E 001°48'3 6.8
2017-Nov-15 07:01N 51°43' E 001°48'4 7.8
2017-Nov-15 06:30N 51°39' E 001°49'611.5
2017-Nov-15 06:01N 51°34' E 001°51'611.7
2017-Nov-15 05:31N 51°28' E 001°55'612.1
2017-Nov-15 05:01N 51°25' E 002°02'612.4
2017-Nov-15 04:30N 51°22' E 002°11'612.4
2017-Nov-15 04:01N 51°21' E 002°21'814.0
2017-Nov-15 03:28N 51°23' E 002°33'613.6
2017-Nov-15 03:00N 51°22' E 002°43'612.4
2017-Nov-15 02:30N 51°22' E 002°53'713.1
2017-Nov-15 02:01N 51°25' E 003°02'713.5
2017-Nov-15 01:30N 51°25' E 003°13'714.0
2017-Nov-15 01:00N 51°25' E 003°24'613.0
2017-Nov-15 00:31N 51°26' E 003°35'510.4
2017-Nov-15 00:00N 51°24' E 003°43'611.9
2017-Nov-14 23:30N 51°21' E 003°50'510.8
2017-Nov-14 23:00N 51°24' E 003°57'3 6.5
2017-Nov-14 22:30N 51°25' E 004°02'4 8.7
2017-Nov-14 22:00N 51°22' E 004°07'4 7.3
2017-Nov-14 21:30N 51°22' E 004°13'5 9.1
2017-Nov-14 21:00N 51°18' E 004°16'1 2.9
2017-Nov-14 20:30N 51°17' E 004°15'0 0.0
2017-Nov-14 20:00N 51°17' E 004°15'0 0.0
2017-Nov-14 19:30N 51°17' E 004°15'0 0.0
2017-Nov-14 19:00N 51°17' E 004°15'0 0.0
2017-Nov-14 18:29N 51°17' E 004°15'0 0.0
2017-Nov-14 17:59N 51°17' E 004°15'0 0.0
2017-Nov-14 17:29N 51°17' E 004°15'0 0.0
2017-Nov-14 16:59N 51°17' E 004°15'0 0.0
2017-Nov-14 16:29N 51°17' E 004°15'0 0.0
2017-Nov-14 15:59N 51°17' E 004°15'0 0.0
2017-Nov-14 15:29N 51°17' E 004°15'0 0.0
2017-Nov-14 14:59N 51°17' E 004°15'0 0.0
2017-Nov-14 14:29N 51°17' E 004°15'0 0.0
2017-Nov-14 13:59N 51°17' E 004°15'0 0.0
2017-Nov-14 13:29N 51°17' E 004°15'0 0.0
2017-Nov-14 12:59N 51°17' E 004°15'0 0.0
2017-Nov-14 12:29N 51°17' E 004°15'0 0.0
2017-Nov-14 11:56N 51°17' E 004°15'0 0.0
2017-Nov-14 11:29N 51°17' E 004°15'0 0.0
2017-Nov-14 10:59N 51°17' E 004°15'0 0.0
2017-Nov-14 10:26N 51°17' E 004°15'0 0.0
2017-Nov-14 09:59N 51°17' E 004°15'0 0.0
2017-Nov-14 09:29N 51°17' E 004°15'0 0.0
2017-Nov-14 08:47N 51°17' E 004°15'0 0.0
2017-Nov-14 08:23N 51°17' E 004°15'0 0.0
2017-Nov-14 07:59N 51°17' E 004°15'0 0.0
2017-Nov-14 07:29N 51°17' E 004°15'0 0.0
2017-Nov-14 06:59N 51°17' E 004°15'0 0.0
2017-Nov-14 06:26N 51°17' E 004°15'0 0.0
2017-Nov-14 05:59N 51°17' E 004°15'0 0.0
2017-Nov-14 05:29N 51°17' E 004°15'0 0.0
2017-Nov-14 04:59N 51°17' E 004°15'0 0.0
2017-Nov-14 04:29N 51°17' E 004°15'0 0.5
2017-Nov-14 04:00N 51°17' E 004°16'1 1.9
2017-Nov-14 03:30N 51°18' E 004°16'2 4.6
2017-Nov-14 03:00N 51°20' E 004°16'5 9.5
2017-Nov-14 02:31N 51°23' E 004°10'510.5
2017-Nov-14 02:01N 51°25' E 004°02'510.3
2017-Nov-14 01:30N 51°22' E 003°55'510.9
2017-Nov-14 01:01N 51°22' E 003°46'713.4
2017-Nov-14 00:31N 51°26' E 003°39'5 9.0
2017-Nov-14 00:00N 51°25' E 003°32'713.4
2017-Nov-13 23:30N 51°24' E 003°21'815.8
2017-Nov-13 23:00N 51°24' E 003°08'918.1
2017-Nov-13 22:30N 51°22' E 002°54'714.7
2017-Nov-13 22:00N 51°22' E 002°42'150 7.5
2017-Nov-13 01:59N 49°28' E 000°09'0 0.0
2017-Nov-13 01:28N 49°28' E 000°09'0 0.0
2017-Nov-13 00:58N 49°28' E 000°09'0 0.0
2017-Nov-13 00:28N 49°28' E 000°09'0 0.0
2017-Nov-12 23:58N 49°28' E 000°09'0 0.0
2017-Nov-12 23:28N 49°28' E 000°09'0 0.0
2017-Nov-12 22:58N 49°28' E 000°09'0 0.0
2017-Nov-12 22:28N 49°28' E 000°09'0 0.0
2017-Nov-12 21:58N 49°28' E 000°09'0 0.0
2017-Nov-12 21:30N 49°28' E 000°09'0 0.0
2017-Nov-12 21:00N 49°28' E 000°09'0 0.0
2017-Nov-12 20:28N 49°28' E 000°09'0 0.0
2017-Nov-12 19:58N 49°28' E 000°09'0 0.0
2017-Nov-12 19:28N 49°28' E 000°09'0 0.0
2017-Nov-12 19:00N 49°28' E 000°09'0 0.0
2017-Nov-12 18:26N 49°28' E 000°09'0 0.0
2017-Nov-12 18:00N 49°28' E 000°09'0 0.0
2017-Nov-12 17:29N 49°28' E 000°09'0 0.0
2017-Nov-12 16:59N 49°28' E 000°09'0 0.0
2017-Nov-12 16:29N 49°28' E 000°09'0 0.0
2017-Nov-12 15:58N 49°28' E 000°09'0 0.0
2017-Nov-12 15:28N 49°28' E 000°09'0 0.0
2017-Nov-12 15:00N 49°28' E 000°09'0 0.0
2017-Nov-12 14:29N 49°28' E 000°09'0 0.0
2017-Nov-12 13:52N 49°28' E 000°09'0 0.0
2017-Nov-12 13:29N 49°28' E 000°09'0 0.0
2017-Nov-12 13:00N 49°28' E 000°09'0 0.0
2017-Nov-12 12:28N 49°28' E 000°09'0 0.0
2017-Nov-12 12:00N 49°28' E 000°09'0 0.0
2017-Nov-12 11:30N 49°28' E 000°09'0 0.0
2017-Nov-12 10:58N 49°28' E 000°09'0 0.0
2017-Nov-12 10:28N 49°28' E 000°09'0 0.0
2017-Nov-12 09:58N 49°28' E 000°09'0 0.0
2017-Nov-12 09:28N 49°28' E 000°09'0 0.0
2017-Nov-12 08:58N 49°28' E 000°09'0 0.0
2017-Nov-12 08:28N 49°28' E 000°09'0 0.0
2017-Nov-12 07:58N 49°28' E 000°09'0 0.0
2017-Nov-12 07:28N 49°28' E 000°09'0 0.0
2017-Nov-12 06:58N 49°28' E 000°09'0 0.0
2017-Nov-12 06:27N 49°28' E 000°09'0 0.0
2017-Nov-12 06:00N 49°28' E 000°09'0 0.0
2017-Nov-12 05:30N 49°28' E 000°09'0 0.0
2017-Nov-12 04:59N 49°28' E 000°09'0 0.0
2017-Nov-12 04:29N 49°28' E 000°09'0 0.0
2017-Nov-12 03:59N 49°28' E 000°09'0 0.0
2017-Nov-12 03:29N 49°28' E 000°09'0 0.0
2017-Nov-12 02:59N 49°28' E 000°09'0 0.0
2017-Nov-12 02:29N 49°28' E 000°09'0 0.0
2017-Nov-12 01:59N 49°28' E 000°09'0 0.0
2017-Nov-12 01:30N 49°28' E 000°09'0 0.0
2017-Nov-12 01:00N 49°28' E 000°09'0 0.0
2017-Nov-12 00:30N 49°28' E 000°09'0 0.0
2017-Nov-12 00:00N 49°28' E 000°09'0 0.0
2017-Nov-11 23:30N 49°28' E 000°09'0 0.0
2017-Nov-11 23:00N 49°28' E 000°09'0 0.0
2017-Nov-11 22:28N 49°28' E 000°09'0 0.0
2017-Nov-11 21:58N 49°28' E 000°09'0 0.0
2017-Nov-11 21:30N 49°28' E 000°09'0 0.0
2017-Nov-11 21:00N 49°28' E 000°09'0 0.0
2017-Nov-11 20:30N 49°28' E 000°09'0 0.0
2017-Nov-11 20:00N 49°28' E 000°09'1 1.6
2017-Nov-11 19:31N 49°28' E 000°08'611.8
2017-Nov-11 19:00N 49°30' W 000°00'612.0
2017-Nov-11 18:30N 49°32' W 000°09'4 8.3
2017-Nov-11 18:00N 49°36' W 000°12'612.1
2017-Nov-11 17:30N 49°42' W 000°10'713.7
2017-Nov-11 17:00N 49°49' W 000°09'713.5
2017-Nov-11 16:30N 49°55' W 000°08'713.4
2017-Nov-11 16:00N 50°02' W 000°06'713.4
2017-Nov-11 15:30N 50°09' W 000°06'1112.6
2017-Nov-11 14:38N 50°19' W 000°02'213.0
2017-Nov-11 14:29N 50°21' W 000°02'612.7
2017-Nov-11 14:00N 50°27' W 000°00'611.6
2017-Nov-11 13:31N 50°29' E 000°08'611.5
2017-Nov-11 13:00N 50°31' E 000°17'611.9
2017-Nov-11 12:31N 50°33' E 000°26'612.4
2017-Nov-11 12:01N 50°36' E 000°34'612.6
2017-Nov-11 11:30N 50°40' E 000°42'713.0
2017-Nov-11 11:01N 50°44' E 000°50'713.8
2017-Nov-11 10:30N 50°48' E 000°58'713.7
2017-Nov-11 10:00N 50°53' E 001°06'713.3
2017-Nov-11 09:30N 50°57' E 001°14'713.5
2017-Nov-11 09:01N 51°02' E 001°22'815.9
2017-Nov-11 08:31N 51°07' E 001°32'815.6
2017-Nov-11 08:01N 51°12' E 001°42'815.5
2017-Nov-11 07:31N 51°18' E 001°49'815.7
2017-Nov-11 07:00N 51°25' E 001°55'815.8
2017-Nov-11 06:30N 51°32' E 002°02'816.0
2017-Nov-11 06:00N 51°37' E 002°11'3916.2
2017-Nov-11 03:38N 52°02' E 002°58'216.4
2017-Nov-11 03:30N 52°03' E 003°01'816.5
2017-Nov-11 03:00N 52°03' E 003°15'816.7
2017-Nov-11 02:29N 52°03' E 003°29'816.8
2017-Nov-11 02:00N 52°03' E 003°42'815.5
2017-Nov-11 01:30N 52°02' E 003°54'611.2
2017-Nov-11 01:00N 51°60' E 004°03'2 4.2
2017-Nov-11 00:30N 51°58' E 004°04'0 0.4
2017-Nov-10 23:58N 51°58' E 004°04'0 0.0
2017-Nov-10 23:28N 51°58' E 004°04'0 0.0
2017-Nov-10 22:58N 51°58' E 004°04'0 0.0
2017-Nov-10 22:28N 51°58' E 004°04'0 0.0
2017-Nov-10 21:58N 51°58' E 004°04'0 0.0
2017-Nov-10 21:28N 51°58' E 004°04'0 0.0
2017-Nov-10 20:58N 51°58' E 004°04'0 0.0
2017-Nov-10 20:28N 51°58' E 004°04'0 0.0
2017-Nov-10 19:58N 51°58' E 004°04'0 0.0
2017-Nov-10 19:28N 51°58' E 004°04'0 0.0
2017-Nov-10 18:58N 51°58' E 004°04'0 0.0
2017-Nov-10 18:28N 51°58' E 004°04'0 0.0
2017-Nov-10 17:58N 51°58' E 004°04'0 0.0
2017-Nov-10 17:28N 51°58' E 004°04'0 0.0
2017-Nov-10 16:58N 51°58' E 004°04'0 0.0
2017-Nov-10 16:22N 51°58' E 004°04'0 0.0
2017-Nov-10 15:58N 51°58' E 004°04'0 0.0
2017-Nov-10 15:28N 51°58' E 004°04'0 0.0
2017-Nov-10 14:58N 51°58' E 004°04'1 2.1
2017-Nov-10 14:30N 51°58' E 004°05'5 9.9
2017-Nov-10 14:00N 51°60' E 003°58'3 6.2
2017-Nov-10 13:30N 52°02' E 003°54'3 5.3
2017-Nov-10 13:00N 52°01' E 003°50'5 9.2
2017-Nov-10 12:30N 52°06' E 003°48'1 2.7
2017-Nov-10 12:00N 52°07' E 003°47'1 2.9
2017-Nov-10 11:30N 52°08' E 003°46'4 8.4
2017-Nov-10 11:00N 52°13' E 003°47'816.3
2017-Nov-10 10:30N 52°21' E 003°48'917.5
2017-Nov-10 10:00N 52°29' E 003°51'917.3
2017-Nov-10 09:29N 52°38' E 003°54'917.6
2017-Nov-10 08:59N 52°47' E 003°57'917.2
2017-Nov-10 08:29N 52°55' E 003°59'816.0
2017-Nov-10 07:59N 53°01' E 004°08'816.3
2017-Nov-10 07:29N 53°07' E 004°18'816.1
2017-Nov-10 06:59N 53°13' E 004°26'917.1
2017-Nov-10 06:29N 53°21' E 004°31'917.4
2017-Nov-10 05:59N 53°29' E 004°39'917.8
2017-Nov-10 05:29N 53°33' E 004°52'918.3
2017-Nov-10 04:59N 53°36' E 005°07'918.4
2017-Nov-10 04:30N 53°39' E 005°21'1018.5
2017-Nov-10 03:59N 53°42' E 005°37'7314.9
2017-Nov-09 23:02N 53°59' E 007°37'114.7
2017-Nov-09 23:00N 53°59' E 007°38'815.2
2017-Nov-09 22:30N 53°53' E 007°46'611.8
2017-Nov-09 22:00N 53°52' E 007°55'815.9
2017-Nov-09 21:30N 53°48' E 008°08'917.5
2017-Nov-09 21:00N 53°42' E 008°19'816.7
2017-Nov-09 20:30N 53°37' E 008°29'1 2.2
2017-Nov-09 19:59N 53°36' E 008°31'0 0.0
2017-Nov-09 19:29N 53°36' E 008°31'0 0.0
2017-Nov-09 18:59N 53°36' E 008°31'0 0.0
2017-Nov-09 18:29N 53°36' E 008°31'0 0.0
2017-Nov-09 17:59N 53°36' E 008°31'0 0.0
2017-Nov-09 17:30N 53°36' E 008°31'0 0.0
2017-Nov-09 16:59N 53°36' E 008°31'0 0.0
2017-Nov-09 16:29N 53°36' E 008°31'0 0.0
2017-Nov-09 16:00N 53°36' E 008°31'0 0.0
2017-Nov-09 15:29N 53°36' E 008°31'0 0.0
2017-Nov-09 14:59N 53°36' E 008°31'0 0.0
2017-Nov-09 14:30N 53°36' E 008°31'0 0.0
2017-Nov-09 13:59N 53°36' E 008°31'0 0.0
2017-Nov-09 13:29N 53°36' E 008°31'0 0.0
2017-Nov-09 13:00N 53°36' E 008°31'2 3.4
2017-Nov-09 12:30N 53°35' E 008°32'0 0.6
2017-Nov-09 11:57N 53°34' E 008°32'0 0.0
2017-Nov-09 11:30N 53°34' E 008°32'0 0.0
2017-Nov-09 11:00N 53°34' E 008°32'0 0.0
2017-Nov-09 10:30N 53°34' E 008°32'0 0.0
2017-Nov-09 10:00N 53°34' E 008°32'0 0.0
2017-Nov-09 09:30N 53°34' E 008°32'0 0.0
2017-Nov-09 09:00N 53°34' E 008°32'0 0.0
2017-Nov-09 08:30N 53°34' E 008°32'0 0.0
2017-Nov-09 08:00N 53°34' E 008°32'0 0.0
2017-Nov-09 07:30N 53°34' E 008°32'0 0.0
2017-Nov-09 06:57N 53°34' E 008°32'0 0.0
2017-Nov-09 06:30N 53°34' E 008°32'0 0.0
2017-Nov-09 06:00N 53°34' E 008°32'0 0.0
2017-Nov-09 05:30N 53°34' E 008°32'0 0.0
2017-Nov-09 04:59N 53°34' E 008°32'0 0.0
2017-Nov-09 04:29N 53°34' E 008°32'0 0.0
2017-Nov-09 03:59N 53°34' E 008°32'0 0.0
2017-Nov-09 03:29N 53°34' E 008°32'0 0.0
2017-Nov-09 02:59N 53°34' E 008°32'2 3.4
2017-Nov-09 02:30N 53°36' E 008°31'814.9
2017-Nov-09 02:00N 53°41' E 008°22'918.6
2017-Nov-09 01:30N 53°47' E 008°09'917.7
2017-Nov-09 01:00N 53°51' E 007°57'712.9
2017-Nov-09 00:29N 53°53' E 007°46'5716.7
2017-Nov-08 21:05N 54°43' E 006°58'117.0
2017-Nov-08 21:00N 54°44' E 006°57'1217.3
2017-Nov-08 20:19N 54°54' E 006°48'13117.3
2017-Nov-08 12:46N 57°01' E 007°50'517.8
2017-Nov-08 12:30N 57°05' E 007°54'8918.1
2017-Nov-08 07:34N 57°50' E 010°17'119.6
2017-Nov-08 07:30N 57°50' E 010°19'1019.9
2017-Nov-08 07:00N 57°49' E 010°38'1019.7
2017-Nov-08 06:30N 57°44' E 010°54'1020.4
2017-Nov-08 06:00N 57°37' E 011°07'1120.9
2017-Nov-08 05:30N 57°30' E 011°22'1020.5
2017-Nov-08 05:01N 57°21' E 011°30'1121.2
2017-Nov-08 04:29N 57°11' E 011°37'  
Track history (hours):
 
Tides and Currents Weather Stations Pressure Air Temp Water Temp Dewpoint Dewpoint Depression Visibility Wind Speed Wind Dir Waves Ship Positions

MSC Luisa

Last reported at 2017-Nov-18 03:32 UTC. Time now 2017-Nov-18 04:37 UTC.
Position N 48°28' W 006°09'.

Length 300 m; draft 10.8 m.

Type: Ship. MMSI: 355308000.

Date/timePositionNaut miles runAvg speedWind from/ knotsBaromVisibWave heightAir tempDewpointWater temp
2017-Nov-18 03:32N 48°28' W 006°09'918.9
2017-Nov-18 03:02N 48°36' W 006°03'119.0
2017-Nov-18 02:59N 48°37' W 006°02'1118.8
2017-Nov-18 02:24N 48°46' W 005°54'918.4
2017-Nov-18 01:55N 48°54' W 005°47'919.0
2017-Nov-18 01:26N 48°59' W 005°35'2619.6
2017-Nov-18 00:06N 49°12' W 005°01'320.4
2017-Nov-17 23:57N 49°14' W 004°57'1120.8
2017-Nov-17 23:24N 49°19' W 004°42'2921.4
2017-Nov-17 22:02N 49°33' W 004°02'621.3
2017-Nov-17 21:45N 49°36' W 003°53'521.1
2017-Nov-17 21:29N 49°38' W 003°46'1520.4
2017-Nov-17 20:44N 49°47' W 003°26'520.0
2017-Nov-17 20:30N 49°49' W 003°20'1019.4
2017-Nov-17 20:00N 49°54' W 003°07'918.8
2017-Nov-17 19:30N 49°57' W 002°53'918.2
2017-Nov-17 19:00N 49°60' W 002°40'2417.2
2017-Nov-17 17:35N 49°59' W 002°02'118.2
2017-Nov-17 17:31N 49°58' W 001°60'918.4
2017-Nov-17 17:00N 49°56' W 001°46'918.2
2017-Nov-17 16:31N 49°53' W 001°32'918.9
2017-Nov-17 16:01N 49°51' W 001°18'1020.1
2017-Nov-17 15:30N 49°47' W 001°04'1020.5
2017-Nov-17 15:00N 49°42' W 000°50'1020.8
2017-Nov-17 14:30N 49°38' W 000°35'1020.8
2017-Nov-17 14:00N 49°34' W 000°20'919.0
2017-Nov-17 13:30N 49°31' W 000°06'714.1
2017-Nov-17 13:00N 49°29' E 000°04'3 6.0
2017-Nov-17 12:30N 49°28' E 000°08'0 0.0
2017-Nov-17 12:00N 49°28' E 000°08'0 0.0
2017-Nov-17 11:30N 49°28' E 000°08'0 0.0
2017-Nov-17 10:58N 49°28' E 000°08'0 0.0
2017-Nov-17 10:28N 49°28' E 000°08'0 0.0
2017-Nov-17 09:58N 49°28' E 000°08'0 0.0
2017-Nov-17 09:28N 49°28' E 000°08'0 0.0
2017-Nov-17 09:00N 49°28' E 000°08'0 0.0
2017-Nov-17 08:30N 49°28' E 000°08'0 0.0
2017-Nov-17 07:58N 49°28' E 000°08'0 0.0
2017-Nov-17 07:28N 49°28' E 000°08'0 0.0
2017-Nov-17 06:58N 49°28' E 000°08'0 0.0
2017-Nov-17 06:28N 49°28' E 000°08'0 0.0
2017-Nov-17 05:58N 49°28' E 000°08'0 0.0
2017-Nov-17 05:28N 49°28' E 000°08'0 0.0
2017-Nov-17 04:58N 49°28' E 000°08'0 0.0
2017-Nov-17 04:28N 49°28' E 000°08'0 0.0
2017-Nov-17 03:58N 49°28' E 000°08'0 0.0
2017-Nov-17 03:30N 49°28' E 000°08'0 0.0
2017-Nov-17 02:59N 49°28' E 000°08'0 0.0
2017-Nov-17 02:30N 49°28' E 000°08'0 0.0
2017-Nov-17 01:57N 49°28' E 000°08'0 0.0
2017-Nov-17 01:30N 49°28' E 000°08'0 0.0
2017-Nov-17 00:59N 49°28' E 000°08'0 0.0
2017-Nov-17 00:29N 49°28' E 000°08'0 0.0
2017-Nov-17 00:00N 49°28' E 000°08'0 0.0
2017-Nov-16 23:30N 49°28' E 000°08'0 0.0
2017-Nov-16 22:59N 49°28' E 000°08'0 0.0
2017-Nov-16 22:29N 49°28' E 000°08'0 0.0
2017-Nov-16 21:58N 49°28' E 000°08'0 0.0
2017-Nov-16 21:30N 49°28' E 000°08'0 0.0
2017-Nov-16 21:00N 49°28' E 000°08'0 0.0
2017-Nov-16 20:30N 49°28' E 000°08'0 0.2
2017-Nov-16 20:01N 49°28' E 000°08'4 7.4
2017-Nov-16 19:30N 49°30' E 000°03'714.9
2017-Nov-16 19:00N 49°32' W 000°08'3 5.2
2017-Nov-16 18:30N 49°33' W 000°11'4 8.8
2017-Nov-16 18:00N 49°38' W 000°12'816.1
2017-Nov-16 17:30N 49°45' W 000°08'1020.5
2017-Nov-16 17:00N 49°56' W 000°08'1020.4
2017-Nov-16 16:30N 50°06' W 000°07'1020.1
2017-Nov-16 16:00N 50°16' W 000°06'1019.6
2017-Nov-16 15:30N 50°26' W 000°03'1020.4
2017-Nov-16 15:00N 50°30' E 000°12'1020.7
2017-Nov-16 14:30N 50°34' E 000°26'1020.4
2017-Nov-16 14:00N 50°40' E 000°40'1020.0
2017-Nov-16 13:30N 50°46' E 000°52'1019.3
2017-Nov-16 13:00N 50°52' E 001°05'918.5
2017-Nov-16 12:30N 50°58' E 001°16'817.0
2017-Nov-16 12:00N 51°03' E 001°26'815.2
2017-Nov-16 11:30N 51°09' E 001°35'714.1
2017-Nov-16 11:00N 51°15' E 001°39'816.5
2017-Nov-16 10:30N 51°23' E 001°34'713.2
2017-Nov-16 10:00N 51°28' E 001°28'713.3
2017-Nov-16 09:30N 51°29' E 001°17'612.7
2017-Nov-16 09:00N 51°29' E 001°07'713.5
2017-Nov-16 08:30N 51°29' E 000°56'815.5
2017-Nov-16 08:00N 51°30' E 000°44'713.9
2017-Nov-16 07:31N 51°30' E 000°33'2 3.2
2017-Nov-16 07:01N 51°30' E 000°30'0 0.0
2017-Nov-16 06:31N 51°30' E 000°30'0 0.0
2017-Nov-16 06:00N 51°30' E 000°30'0 0.0
2017-Nov-16 05:30N 51°30' E 000°30'0 0.0
2017-Nov-16 05:01N 51°30' E 000°30'0 0.0
2017-Nov-16 04:31N 51°30' E 000°30'0 0.0
2017-Nov-16 04:01N 51°30' E 000°30'0 0.0
2017-Nov-16 03:30N 51°30' E 000°30'0 0.0
2017-Nov-16 03:00N 51°30' E 000°30'0 0.0
2017-Nov-16 02:31N 51°30' E 000°30'0 0.0
2017-Nov-16 02:01N 51°30' E 000°30'0 0.0
2017-Nov-16 01:31N 51°30' E 000°30'0 0.0
2017-Nov-16 01:00N 51°30' E 000°30'0 0.0
2017-Nov-16 00:31N 51°30' E 000°30'0 0.0
2017-Nov-16 00:01N 51°30' E 000°30'0 0.0
2017-Nov-15 23:31N 51°30' E 000°30'0 0.0
2017-Nov-15 23:01N 51°30' E 000°30'0 0.1
2017-Nov-15 22:31N 51°30' E 000°30'0 0.0
2017-Nov-15 22:01N 51°30' E 000°30'0 0.0
2017-Nov-15 21:31N 51°30' E 000°30'0 0.0
2017-Nov-15 21:01N 51°30' E 000°30'0 0.0
2017-Nov-15 20:31N 51°30' E 000°30'0 0.0
2017-Nov-15 20:01N 51°30' E 000°30'0 0.0
2017-Nov-15 19:30N 51°30' E 000°30'0 0.0
2017-Nov-15 19:01N 51°30' E 000°30'0 0.0
2017-Nov-15 18:31N 51°30' E 000°30'0 0.0
2017-Nov-15 18:01N 51°30' E 000°30'0 0.0
2017-Nov-15 17:30N 51°30' E 000°30'0 0.0
2017-Nov-15 17:00N 51°30' E 000°30'0 0.2
2017-Nov-15 16:30N 51°30' E 000°30'3 5.4
2017-Nov-15 16:01N 51°30' E 000°34'714.7
2017-Nov-15 15:30N 51°29' E 000°46'815.5
2017-Nov-15 15:00N 51°29' E 000°59'1015.8
2017-Nov-15 14:22N 51°34' E 001°13'615.8
2017-Nov-15 14:00N 51°38' E 001°20'815.8
2017-Nov-15 13:30N 51°44' E 001°29'815.4
2017-Nov-15 13:00N 51°49' E 001°37'611.2
2017-Nov-15 12:30N 51°53' E 001°44'4 7.2
2017-Nov-15 12:00N 51°54' E 001°49'1 1.9
2017-Nov-15 11:30N 51°54' E 001°48'1 1.5
2017-Nov-15 11:00N 51°53' E 001°47'1 1.2
2017-Nov-15 10:30N 51°53' E 001°47'0 0.9
2017-Nov-15 10:00N 51°53' E 001°46'0 0.5
2017-Nov-15 09:30N 51°53' E 001°46'0 0.2
2017-Nov-15 09:00N 51°53' E 001°45'0 0.3
2017-Nov-15 08:30N 51°52' E 001°45'3 5.2
2017-Nov-15 08:00N 51°50' E 001°47'3 6.9
2017-Nov-15 07:30N 51°47' E 001°48'3 6.8
2017-Nov-15 07:01N 51°43' E 001°48'4 7.8
2017-Nov-15 06:30N 51°39' E 001°49'611.5
2017-Nov-15 06:01N 51°34' E 001°51'611.7
2017-Nov-15 05:31N 51°28' E 001°55'612.1
2017-Nov-15 05:01N 51°25' E 002°02'612.4
2017-Nov-15 04:30N 51°22' E 002°11'612.4
2017-Nov-15 04:01N 51°21' E 002°21'814.0
2017-Nov-15 03:28N 51°23' E 002°33'613.6
2017-Nov-15 03:00N 51°22' E 002°43'612.4
2017-Nov-15 02:30N 51°22' E 002°53'713.1
2017-Nov-15 02:01N 51°25' E 003°02'713.5
2017-Nov-15 01:30N 51°25' E 003°13'714.0
2017-Nov-15 01:00N 51°25' E 003°24'613.0
2017-Nov-15 00:31N 51°26' E 003°35'510.4
2017-Nov-15 00:00N 51°24' E 003°43'611.9
2017-Nov-14 23:30N 51°21' E 003°50'510.8
2017-Nov-14 23:00N 51°24' E 003°57'3 6.5
2017-Nov-14 22:30N 51°25' E 004°02'4 8.7
2017-Nov-14 22:00N 51°22' E 004°07'4 7.3
2017-Nov-14 21:30N 51°22' E 004°13'5 9.1
2017-Nov-14 21:00N 51°18' E 004°16'1 2.9
2017-Nov-14 20:30N 51°17' E 004°15'0 0.0
2017-Nov-14 20:00N 51°17' E 004°15'0 0.0
2017-Nov-14 19:30N 51°17' E 004°15'0 0.0
2017-Nov-14 19:00N 51°17' E 004°15'0 0.0
2017-Nov-14 18:29N 51°17' E 004°15'0 0.0
2017-Nov-14 17:59N 51°17' E 004°15'0 0.0
2017-Nov-14 17:29N 51°17' E 004°15'0 0.0
2017-Nov-14 16:59N 51°17' E 004°15'0 0.0
2017-Nov-14 16:29N 51°17' E 004°15'0 0.0
2017-Nov-14 15:59N 51°17' E 004°15'0 0.0
2017-Nov-14 15:29N 51°17' E 004°15'0 0.0
2017-Nov-14 14:59N 51°17' E 004°15'0 0.0
2017-Nov-14 14:29N 51°17' E 004°15'0 0.0
2017-Nov-14 13:59N 51°17' E 004°15'0 0.0
2017-Nov-14 13:29N 51°17' E 004°15'0 0.0
2017-Nov-14 12:59N 51°17' E 004°15'0 0.0
2017-Nov-14 12:29N 51°17' E 004°15'0 0.0
2017-Nov-14 11:56N 51°17' E 004°15'0 0.0
2017-Nov-14 11:29N 51°17' E 004°15'0 0.0
2017-Nov-14 10:59N 51°17' E 004°15'0 0.0
2017-Nov-14 10:26N 51°17' E 004°15'0 0.0
2017-Nov-14 09:59N 51°17' E 004°15'0 0.0
2017-Nov-14 09:29N 51°17' E 004°15'0 0.0
2017-Nov-14 08:47N 51°17' E 004°15'0 0.0
2017-Nov-14 08:23N 51°17' E 004°15'0 0.0
2017-Nov-14 07:59N 51°17' E 004°15'0 0.0
2017-Nov-14 07:29N 51°17' E 004°15'0 0.0
2017-Nov-14 06:59N 51°17' E 004°15'0 0.0
2017-Nov-14 06:26N 51°17' E 004°15'0 0.0
2017-Nov-14 05:59N 51°17' E 004°15'0 0.0
2017-Nov-14 05:29N 51°17' E 004°15'0 0.0
2017-Nov-14 04:59N 51°17' E 004°15'0 0.0
2017-Nov-14 04:29N 51°17' E 004°15'0 0.5
2017-Nov-14 04:00N 51°17' E 004°16'1 1.9
2017-Nov-14 03:30N 51°18' E 004°16'2 4.6
2017-Nov-14 03:00N 51°20' E 004°16'5 9.5
2017-Nov-14 02:31N 51°23' E 004°10'510.5
2017-Nov-14 02:01N 51°25' E 004°02'510.3
2017-Nov-14 01:30N 51°22' E 003°55'510.9
2017-Nov-14 01:01N 51°22' E 003°46'713.4
2017-Nov-14 00:31N 51°26' E 003°39'5 9.0
2017-Nov-14 00:00N 51°25' E 003°32'713.4
2017-Nov-13 23:30N 51°24' E 003°21'815.8
2017-Nov-13 23:00N 51°24' E 003°08'918.1
2017-Nov-13 22:30N 51°22' E 002°54'714.7
2017-Nov-13 22:00N 51°22' E 002°42'150 7.5
2017-Nov-13 01:59N 49°28' E 000°09'0 0.0
2017-Nov-13 01:28N 49°28' E 000°09'0 0.0
2017-Nov-13 00:58N 49°28' E 000°09'0 0.0
2017-Nov-13 00:28N 49°28' E 000°09'0 0.0
2017-Nov-12 23:58N 49°28' E 000°09'0 0.0
2017-Nov-12 23:28N 49°28' E 000°09'0 0.0
2017-Nov-12 22:58N 49°28' E 000°09'0 0.0
2017-Nov-12 22:28N 49°28' E 000°09'0 0.0
2017-Nov-12 21:58N 49°28' E 000°09'0 0.0
2017-Nov-12 21:30N 49°28' E 000°09'0 0.0
2017-Nov-12 21:00N 49°28' E 000°09'0 0.0
2017-Nov-12 20:28N 49°28' E 000°09'0 0.0
2017-Nov-12 19:58N 49°28' E 000°09'0 0.0
2017-Nov-12 19:28N 49°28' E 000°09'0 0.0
2017-Nov-12 19:00N 49°28' E 000°09'0 0.0
2017-Nov-12 18:26N 49°28' E 000°09'0 0.0
2017-Nov-12 18:00N 49°28' E 000°09'0 0.0
2017-Nov-12 17:29N 49°28' E 000°09'0 0.0
2017-Nov-12 16:59N 49°28' E 000°09'0 0.0
2017-Nov-12 16:29N 49°28' E 000°09'0 0.0
2017-Nov-12 15:58N 49°28' E 000°09'0 0.0
2017-Nov-12 15:28N 49°28' E 000°09'0 0.0
2017-Nov-12 15:00N 49°28' E 000°09'0 0.0
2017-Nov-12 14:29N 49°28' E 000°09'0 0.0
2017-Nov-12 13:52N 49°28' E 000°09'0 0.0
2017-Nov-12 13:29N 49°28' E 000°09'0 0.0
2017-Nov-12 13:00N 49°28' E 000°09'0 0.0
2017-Nov-12 12:28N 49°28' E 000°09'0 0.0
2017-Nov-12 12:00N 49°28' E 000°09'0 0.0
2017-Nov-12 11:30N 49°28' E 000°09'0 0.0
2017-Nov-12 10:58N 49°28' E 000°09'0 0.0
2017-Nov-12 10:28N 49°28' E 000°09'0 0.0
2017-Nov-12 09:58N 49°28' E 000°09'0 0.0
2017-Nov-12 09:28N 49°28' E 000°09'0 0.0
2017-Nov-12 08:58N 49°28' E 000°09'0 0.0
2017-Nov-12 08:28N 49°28' E 000°09'0 0.0
2017-Nov-12 07:58N 49°28' E 000°09'0 0.0
2017-Nov-12 07:28N 49°28' E 000°09'0 0.0
2017-Nov-12 06:58N 49°28' E 000°09'0 0.0
2017-Nov-12 06:27N 49°28' E 000°09'0 0.0
2017-Nov-12 06:00N 49°28' E 000°09'0 0.0
2017-Nov-12 05:30N 49°28' E 000°09'0 0.0
2017-Nov-12 04:59N 49°28' E 000°09'0 0.0
2017-Nov-12 04:29N 49°28' E 000°09'0 0.0
2017-Nov-12 03:59N 49°28' E 000°09'0 0.0
2017-Nov-12 03:29N 49°28' E 000°09'0 0.0
2017-Nov-12 02:59N 49°28' E 000°09'0 0.0
2017-Nov-12 02:29N 49°28' E 000°09'0 0.0
2017-Nov-12 01:59N 49°28' E 000°09'0 0.0
2017-Nov-12 01:30N 49°28' E 000°09'0 0.0
2017-Nov-12 01:00N 49°28' E 000°09'0 0.0
2017-Nov-12 00:30N 49°28' E 000°09'0 0.0
2017-Nov-12 00:00N 49°28' E 000°09'0 0.0
2017-Nov-11 23:30N 49°28' E 000°09'0 0.0
2017-Nov-11 23:00N 49°28' E 000°09'0 0.0
2017-Nov-11 22:28N 49°28' E 000°09'0 0.0
2017-Nov-11 21:58N 49°28' E 000°09'0 0.0
2017-Nov-11 21:30N 49°28' E 000°09'0 0.0
2017-Nov-11 21:00N 49°28' E 000°09'0 0.0
2017-Nov-11 20:30N 49°28' E 000°09'0 0.0
2017-Nov-11 20:00N 49°28' E 000°09'1 1.6
2017-Nov-11 19:31N 49°28' E 000°08'611.8
2017-Nov-11 19:00N 49°30' W 000°00'612.0
2017-Nov-11 18:30N 49°32' W 000°09'4 8.3
2017-Nov-11 18:00N 49°36' W 000°12'612.1
2017-Nov-11 17:30N 49°42' W 000°10'713.7
2017-Nov-11 17:00N 49°49' W 000°09'713.5
2017-Nov-11 16:30N 49°55' W 000°08'713.4
2017-Nov-11 16:00N 50°02' W 000°06'713.4
2017-Nov-11 15:30N 50°09' W 000°06'1112.6
2017-Nov-11 14:38N 50°19' W 000°02'213.0
2017-Nov-11 14:29N 50°21' W 000°02'612.7
2017-Nov-11 14:00N 50°27' W 000°00'611.6
2017-Nov-11 13:31N 50°29' E 000°08'611.5
2017-Nov-11 13:00N 50°31' E 000°17'611.9
2017-Nov-11 12:31N 50°33' E 000°26'612.4
2017-Nov-11 12:01N 50°36' E 000°34'612.6
2017-Nov-11 11:30N 50°40' E 000°42'713.0
2017-Nov-11 11:01N 50°44' E 000°50'713.8
2017-Nov-11 10:30N 50°48' E 000°58'713.7
2017-Nov-11 10:00N 50°53' E 001°06'713.3
2017-Nov-11 09:30N 50°57' E 001°14'713.5
2017-Nov-11 09:01N 51°02' E 001°22'815.9
2017-Nov-11 08:31N 51°07' E 001°32'815.6
2017-Nov-11 08:01N 51°12' E 001°42'815.5
2017-Nov-11 07:31N 51°18' E 001°49'815.7
2017-Nov-11 07:00N 51°25' E 001°55'815.8
2017-Nov-11 06:30N 51°32' E 002°02'816.0
2017-Nov-11 06:00N 51°37' E 002°11'3916.2
2017-Nov-11 03:38N 52°02' E 002°58'216.4
2017-Nov-11 03:30N 52°03' E 003°01'816.5
2017-Nov-11 03:00N 52°03' E 003°15'816.7
2017-Nov-11 02:29N 52°03' E 003°29'816.8
2017-Nov-11 02:00N 52°03' E 003°42'815.5
2017-Nov-11 01:30N 52°02' E 003°54'611.2
2017-Nov-11 01:00N 51°60' E 004°03'2 4.2
2017-Nov-11 00:30N 51°58' E 004°04'0 0.4
2017-Nov-10 23:58N 51°58' E 004°04'0 0.0
2017-Nov-10 23:28N 51°58' E 004°04'0 0.0
2017-Nov-10 22:58N 51°58' E 004°04'0 0.0
2017-Nov-10 22:28N 51°58' E 004°04'0 0.0
2017-Nov-10 21:58N 51°58' E 004°04'0 0.0
2017-Nov-10 21:28N 51°58' E 004°04'0 0.0
2017-Nov-10 20:58N 51°58' E 004°04'0 0.0
2017-Nov-10 20:28N 51°58' E 004°04'0 0.0
2017-Nov-10 19:58N 51°58' E 004°04'0 0.0
2017-Nov-10 19:28N 51°58' E 004°04'0 0.0
2017-Nov-10 18:58N 51°58' E 004°04'0 0.0
2017-Nov-10 18:28N 51°58' E 004°04'0 0.0
2017-Nov-10 17:58N 51°58' E 004°04'0 0.0
2017-Nov-10 17:28N 51°58' E 004°04'0 0.0
2017-Nov-10 16:58N 51°58' E 004°04'0 0.0
2017-Nov-10 16:22N 51°58' E 004°04'0 0.0
2017-Nov-10 15:58N 51°58' E 004°04'0 0.0
2017-Nov-10 15:28N 51°58' E 004°04'0 0.0
2017-Nov-10 14:58N 51°58' E 004°04'1 2.1
2017-Nov-10 14:30N 51°58' E 004°05'5 9.9
2017-Nov-10 14:00N 51°60' E 003°58'3 6.2
2017-Nov-10 13:30N 52°02' E 003°54'3 5.3
2017-Nov-10 13:00N 52°01' E 003°50'5 9.2
2017-Nov-10 12:30N 52°06' E 003°48'1 2.7
2017-Nov-10 12:00N 52°07' E 003°47'1 2.9
2017-Nov-10 11:30N 52°08' E 003°46'4 8.4
2017-Nov-10 11:00N 52°13' E 003°47'816.3
2017-Nov-10 10:30N 52°21' E 003°48'917.5
2017-Nov-10 10:00N 52°29' E 003°51'917.3
2017-Nov-10 09:29N 52°38' E 003°54'917.6
2017-Nov-10 08:59N 52°47' E 003°57'917.2
2017-Nov-10 08:29N 52°55' E 003°59'816.0
2017-Nov-10 07:59N 53°01' E 004°08'816.3
2017-Nov-10 07:29N 53°07' E 004°18'816.1
2017-Nov-10 06:59N 53°13' E 004°26'917.1
2017-Nov-10 06:29N 53°21' E 004°31'917.4
2017-Nov-10 05:59N 53°29' E 004°39'917.8
2017-Nov-10 05:29N 53°33' E 004°52'918.3
2017-Nov-10 04:59N 53°36' E 005°07'918.4
2017-Nov-10 04:30N 53°39' E 005°21'1018.5
2017-Nov-10 03:59N 53°42' E 005°37'7314.9
2017-Nov-09 23:02N 53°59' E 007°37'114.7
2017-Nov-09 23:00N 53°59' E 007°38'815.2
2017-Nov-09 22:30N 53°53' E 007°46'611.8
2017-Nov-09 22:00N 53°52' E 007°55'815.9
2017-Nov-09 21:30N 53°48' E 008°08'917.5
2017-Nov-09 21:00N 53°42' E 008°19'816.7
2017-Nov-09 20:30N 53°37' E 008°29'1 2.2
2017-Nov-09 19:59N 53°36' E 008°31'0 0.0
2017-Nov-09 19:29N 53°36' E 008°31'0 0.0
2017-Nov-09 18:59N 53°36' E 008°31'0 0.0
2017-Nov-09 18:29N 53°36' E 008°31'0 0.0
2017-Nov-09 17:59N 53°36' E 008°31'0 0.0
2017-Nov-09 17:30N 53°36' E 008°31'0 0.0
2017-Nov-09 16:59N 53°36' E 008°31'0 0.0
2017-Nov-09 16:29N 53°36' E 008°31'0 0.0
2017-Nov-09 16:00N 53°36' E 008°31'0 0.0
2017-Nov-09 15:29N 53°36' E 008°31'0 0.0
2017-Nov-09 14:59N 53°36' E 008°31'0 0.0
2017-Nov-09 14:30N 53°36' E 008°31'0 0.0
2017-Nov-09 13:59N 53°36' E 008°31'0 0.0
2017-Nov-09 13:29N 53°36' E 008°31'0 0.0
2017-Nov-09 13:00N 53°36' E 008°31'2 3.4
2017-Nov-09 12:30N 53°35' E 008°32'0 0.6
2017-Nov-09 11:57N 53°34' E 008°32'0 0.0
2017-Nov-09 11:30N 53°34' E 008°32'0 0.0
2017-Nov-09 11:00N 53°34' E 008°32'0 0.0
2017-Nov-09 10:30N 53°34' E 008°32'0 0.0
2017-Nov-09 10:00N 53°34' E 008°32'0 0.0
2017-Nov-09 09:30N 53°34' E 008°32'0 0.0
2017-Nov-09 09:00N 53°34' E 008°32'0 0.0
2017-Nov-09 08:30N 53°34' E 008°32'0 0.0
2017-Nov-09 08:00N 53°34' E 008°32'0 0.0
2017-Nov-09 07:30N 53°34' E 008°32'0 0.0
2017-Nov-09 06:57N 53°34' E 008°32'0 0.0
2017-Nov-09 06:30N 53°34' E 008°32'0 0.0
2017-Nov-09 06:00N 53°34' E 008°32'0 0.0
2017-Nov-09 05:30N 53°34' E 008°32'0 0.0
2017-Nov-09 04:59N 53°34' E 008°32'0 0.0
2017-Nov-09 04:29N 53°34' E 008°32'0 0.0
2017-Nov-09 03:59N 53°34' E 008°32'0 0.0
2017-Nov-09 03:29N 53°34' E 008°32'0 0.0
2017-Nov-09 02:59N 53°34' E 008°32'2 3.4
2017-Nov-09 02:30N 53°36' E 008°31'814.9
2017-Nov-09 02:00N 53°41' E 008°22'918.6
2017-Nov-09 01:30N 53°47' E 008°09'917.7
2017-Nov-09 01:00N 53°51' E 007°57'712.9
2017-Nov-09 00:29N 53°53' E 007°46'5716.7
2017-Nov-08 21:05N 54°43' E 006°58'117.0
2017-Nov-08 21:00N 54°44' E 006°57'1217.3
2017-Nov-08 20:19N 54°54' E 006°48'13117.3
2017-Nov-08 12:46N 57°01' E 007°50'517.8
2017-Nov-08 12:30N 57°05' E 007°54'8918.1
2017-Nov-08 07:34N 57°50' E 010°17'119.6
2017-Nov-08 07:30N 57°50' E 010°19'1019.9
2017-Nov-08 07:00N 57°49' E 010°38'1019.7
2017-Nov-08 06:30N 57°44' E 010°54'1020.4
2017-Nov-08 06:00N 57°37' E 011°07'1120.9
2017-Nov-08 05:30N 57°30' E 011°22'1020.5
2017-Nov-08 05:01N 57°21' E 011°30'1121.2
2017-Nov-08 04:29N 57°11' E 011°37'  

Dump ship's entire track history